Time;durP1;ratioP1;P1;durP2;ratioP2;P2;SDS_P1;SDS_P2;PMS_P1;PMS_P2;Temp;Humidity;BMP_temperature;BMP_pressure;BME280_temperature;BME280_humidity;BME280_pressure;Samples;Min_cycle;Max_cycle;Signal;HPM_P1;HPM_P2
2022/02/18 00:01:22;;;;;;;10.45;8.48;;;;;;;;;;7331052;19;162572;-16
2022/02/18 00:04:00;;;;;;;10.98;8.77;;;;;;;;;;7332531;19;154015;-14
2022/02/18 00:06:34;;;;;;;11.00;8.73;;;;;;;;;;7330480;19;153597;-13
2022/02/18 00:09:08;;;;;;;7.55;6.30;;;;;;;;;;7332043;19;161952;-14
2022/02/18 13:30:00;;;;;;;2.63;1.88;;;;;;;;;;7370421;19;132555;-15
2022/02/18 13:32:32;;;;;;;3.65;1.77;;;;;;;;;;7366537;19;153809;-15
2022/02/18 13:35:03;;;;;;;2.17;1.40;;;;;;;;;;7364385;19;161961;-15
2022/02/18 13:37:36;;;;;;;3.03;1.45;;;;;;;;;;7364965;19;162335;-15
2022/02/18 13:40:09;;;;;;;3.45;1.20;;;;;;;;;;7364955;19;153910;-14
2022/02/18 13:42:52;;;;;;;4.35;1.42;;;;;;;;;;7364818;19;153548;-14
2022/02/18 13:45:27;;;;;;;4.10;1.50;;;;;;;;;;7364385;19;161938;-14
2022/02/18 13:47:59;;;;;;;3.50;1.67;;;;;;;;;;7363079;19;162344;-14
2022/02/18 13:50:32;;;;;;;2.17;1.13;;;;;;;;;;7363367;19;153941;-14
2022/02/18 13:53:04;;;;;;;3.03;1.60;;;;;;;;;;7366679;19;153601;-15
2022/02/18 13:55:37;;;;;;;1.70;1.23;;;;;;;;;;7363896;19;161852;-15
2022/02/18 13:58:22;;;;;;;3.05;1.52;;;;;;;;;;7362906;19;162384;-14
2022/02/18 14:01:00;;;;;;;4.32;1.65;;;;;;;;;;7362881;19;154225;-14
2022/02/18 14:03:31;;;;;;;1.38;1.23;;;;;;;;;;7367272;19;153507;-14
2022/02/18 14:06:12;;;;;;;4.53;1.35;;;;;;;;;;7361869;19;162277;-14
2022/02/18 14:08:44;;;;;;;3.90;1.60;;;;;;;;;;7364597;19;162393;-15
2022/02/18 14:11:15;;;;;;;7.50;1.50;;;;;;;;;;7366359;19;156485;-15
2022/02/18 14:13:46;;;;;;;3.80;1.35;;;;;;;;;;7365103;19;153574;-14
2022/02/18 14:16:28;;;;;;;3.70;1.38;;;;;;;;;;7367429;19;161885;-14
2022/02/18 14:19:11;;;;;;;4.90;1.38;;;;;;;;;;7364148;19;162448;-15
2022/02/18 14:21:45;;;;;;;1.83;1.17;;;;;;;;;;7363206;19;154172;-15
2022/02/18 14:24:16;;;;;;;16.27;2.22;;;;;;;;;;7362932;19;153641;-15
2022/02/18 14:26:50;;;;;;;2.50;1.58;;;;;;;;;;7362785;19;161924;-14
2022/02/18 14:29:22;;;;;;;1.90;1.20;;;;;;;;;;7352697;19;162371;-15
2022/02/18 14:32:00;;;;;;;2.55;1.52;;;;;;;;;;7334546;19;154053;-15
2022/02/18 14:34:31;;;;;;;4.20;1.70;;;;;;;;;;7338755;19;153546;-14
2022/02/18 14:37:04;;;;;;;2.28;1.23;;;;;;;;;;7335084;19;161986;-14
2022/02/18 14:39:43;;;;;;;;;;;;;;;;;;7331392;19;162178;-15
2022/02/18 14:42:18;;;;;;;1.58;1.30;;;;;;;;;;7332339;19;154273;-15
2022/02/18 14:44:54;;;;;;;1.65;1.15;;;;;;;;;;7333992;19;153706;-15
2022/02/18 14:47:30;;;;;;;3.40;1.23;;;;;;;;;;7333446;19;161814;-15
2022/02/18 14:50:02;;;;;;;2.22;1.55;;;;;;;;;;7332158;19;162687;-14
2022/02/18 14:52:33;;;;;;;3.78;1.52;;;;;;;;;;7333969;19;154449;-15
2022/02/18 14:55:04;;;;;;;0.95;0.95;;;;;;;;;;7333607;19;153771;-14
2022/02/18 14:57:36;;;;;;;3.70;1.52;;;;;;;;;;7332104;19;162097;-15
2022/02/18 15:00:09;;;;;;;1.65;1.15;;;;;;;;;;7330818;19;162595;-14
2022/02/18 15:02:43;;;;;;;;;;;;;;;;;;7334110;19;154275;-14
2022/02/18 15:05:14;;;;;;;1.45;1.33;;;;;;;;;;7333666;19;153431;-14
2022/02/18 15:07:46;;;;;;;1.50;1.17;;;;;;;;;;7333045;19;162095;-15
2022/02/18 15:10:17;;;;;;;1.23;1.02;;;;;;;;;;7332796;19;162509;-15
2022/02/18 15:12:48;;;;;;;2.30;0.90;;;;;;;;;;7333406;19;154311;-15
2022/02/18 15:15:20;;;;;;;1.52;1.25;;;;;;;;;;7333312;19;153590;-14
2022/02/18 15:17:53;;;;;;;1.60;1.02;;;;;;;;;;7332733;19;162364;-14
2022/02/18 15:20:25;;;;;;;1.70;1.52;;;;;;;;;;7330044;19;162511;-15
2022/02/18 15:22:57;;;;;;;1.35;1.20;;;;;;;;;;7332776;19;153988;-15
2022/02/18 15:25:29;;;;;;;1.65;1.17;;;;;;;;;;7333047;19;153542;-14
2022/02/18 15:28:03;;;;;;;2.88;1.23;;;;;;;;;;7331495;19;161587;-15
2022/02/18 15:36:07;;;;;;;1.73;1.00;;;;;;;;;;7332667;19;153480;-15
2022/02/18 15:38:39;;;;;;;1.77;1.13;;;;;;;;;;7331997;19;162452;-15
2022/02/18 15:43:54;;;;;;;1.40;1.30;;;;;;;;;;7332268;19;153916;-19
2022/02/18 15:46:25;;;;;;;1.42;1.10;;;;;;;;;;7331959;19;153498;-15
2022/02/18 15:49:01;;;;;;;1.88;1.10;;;;;;;;;;7331993;19;161867;-15
2022/02/18 15:51:33;;;;;;;1.90;1.33;;;;;;;;;;7331828;19;162748;-14
2022/02/18 15:54:04;;;;;;;2.15;1.27;;;;;;;;;;7332111;19;154057;-14
2022/02/18 15:56:36;;;;;;;1.50;1.10;;;;;;;;;;7331854;19;153565;-15
2022/02/18 15:59:07;;;;;;;0.98;0.90;;;;;;;;;;7331012;19;162091;-15
2022/02/18 16:01:39;;;;;;;1.17;1.08;;;;;;;;;;7330236;19;162446;-15
2022/02/18 16:04:29;;;;;;;1.30;1.20;;;;;;;;;;7330509;19;154017;-14
2022/02/18 16:07:01;;;;;;;1.13;1.10;;;;;;;;;;7331494;19;153572;-13
2022/02/18 16:09:34;;;;;;;1.52;1.10;;;;;;;;;;7331332;19;161837;-15
2022/02/18 16:12:06;;;;;;;1.73;1.10;;;;;;;;;;7331134;19;162428;-17
2022/02/18 16:14:39;;;;;;;1.42;1.10;;;;;;;;;;7331707;19;153918;-15
2022/02/18 16:17:10;;;;;;;1.53;1.20;;;;;;;;;;7331607;19;153781;-15
2022/02/18 16:19:44;;;;;;;1.10;1.00;;;;;;;;;;7330177;19;161855;-15
2022/02/18 16:22:16;;;;;;;2.10;1.17;;;;;;;;;;7330899;19;162607;-15
2022/02/18 16:24:47;;;;;;;2.08;1.17;;;;;;;;;;7331150;19;154126;-15
2022/02/18 16:27:19;;;;;;;1.80;1.13;;;;;;;;;;7331205;19;153534;-14
2022/02/18 16:29:50;;;;;;;1.40;1.20;;;;;;;;;;7330818;19;162104;-15
2022/02/18 16:32:23;;;;;;;1.55;1.02;;;;;;;;;;7330506;19;162368;-15
2022/02/18 16:34:58;;;;;;;1.73;1.10;;;;;;;;;;7330910;19;154210;-15
2022/02/18 16:37:33;;;;;;;1.20;0.98;;;;;;;;;;7330842;19;153419;-14
2022/02/18 16:40:05;;;;;;;2.25;1.00;;;;;;;;;;7329225;19;161797;-15
2022/02/18 16:42:37;;;;;;;1.63;0.88;;;;;;;;;;7330509;19;162389;-15
2022/02/18 16:45:10;;;;;;;1.70;1.02;;;;;;;;;;7330473;19;154232;-14
2022/02/18 16:47:42;;;;;;;1.38;1.10;;;;;;;;;;7330344;19;153523;-14
2022/02/18 16:50:18;;;;;;;1.23;1.10;;;;;;;;;;7329940;19;161661;-14
2022/02/18 16:52:49;;;;;;;2.58;1.13;;;;;;;;;;7329434;19;162493;-14
2022/02/18 16:55:21;;;;;;;1.27;1.15;;;;;;;;;;7330458;19;153696;-14
2022/02/18 16:57:52;;;;;;;1.13;1.02;;;;;;;;;;7330148;19;153486;-15
2022/02/18 17:00:23;;;;;;;1.20;1.08;;;;;;;;;;7328390;19;161933;-15
2022/02/18 17:02:55;;;;;;;1.50;0.90;;;;;;;;;;7328229;19;162439;-15
2022/02/18 17:05:30;;;;;;;1.10;1.00;;;;;;;;;;7330052;19;154149;-16
2022/02/18 17:08:01;;;;;;;2.78;1.27;;;;;;;;;;7328781;19;153678;-15
2022/02/18 17:10:33;;;;;;;0.80;0.80;;;;;;;;;;7329703;19;161920;-16
2022/02/18 17:13:05;;;;;;;1.15;0.90;;;;;;;;;;7329636;19;162529;-15
2022/02/18 17:15:36;;;;;;;1.00;0.88;;;;;;;;;;7329831;19;153953;-14
2022/02/18 17:18:07;;;;;;;0.70;0.70;;;;;;;;;;7329575;19;153546;-15
2022/02/18 17:20:41;;;;;;;1.10;0.90;;;;;;;;;;7327790;19;162313;-15
2022/02/18 17:23:13;;;;;;;1.40;1.08;;;;;;;;;;7329086;19;162368;-14
2022/02/18 17:25:44;;;;;;;1.30;1.13;;;;;;;;;;7329357;19;154190;-14
2022/02/18 17:28:16;;;;;;;0.90;0.90;;;;;;;;;;7328205;19;153544;-14
2022/02/18 17:30:47;;;;;;;1.38;1.10;;;;;;;;;;7328677;19;161767;-14
2022/02/18 17:33:18;;;;;;;1.30;0.93;;;;;;;;;;7328784;19;162374;-14
2022/02/18 17:35:52;;;;;;;1.00;1.00;;;;;;;;;;7329182;19;154025;-14
2022/02/18 17:38:24;;;;;;;1.45;1.00;;;;;;;;;;7328929;19;153813;-14
2022/02/18 17:40:55;;;;;;;1.17;1.00;;;;;;;;;;7326461;19;162000;-14
2022/02/18 17:43:26;;;;;;;1.05;1.05;;;;;;;;;;7328503;19;162226;-15
2022/02/18 17:46:00;;;;;;;1.20;0.90;;;;;;;;;;7329124;19;154006;-15
2022/02/18 17:48:32;;;;;;;1.05;0.73;;;;;;;;;;7328598;19;153838;-14
2022/02/18 17:51:06;;;;;;;1.27;0.80;;;;;;;;;;7328479;19;161853;-13
2022/02/18 17:53:38;;;;;;;1.73;0.98;;;;;;;;;;7328136;19;162396;-13
2022/02/18 17:56:11;;;;;;;1.38;0.80;;;;;;;;;;7328552;19;154124;-13
2022/02/18 17:58:42;;;;;;;2.67;1.08;;;;;;;;;;7327177;19;153692;-14
2022/02/18 18:01:14;;;;;;;1.30;1.20;;;;;;;;;;7325447;19;161855;-14
2022/02/18 18:03:45;;;;;;;1.63;0.80;;;;;;;;;;7327854;19;162384;-14
2022/02/18 18:06:19;;;;;;;1.10;1.00;;;;;;;;;;7334993;19;154117;-14
2022/02/18 18:08:50;;;;;;;1.70;0.80;;;;;;;;;;7334211;19;153857;-14
2022/02/18 18:11:21;;;;;;;1.45;1.00;;;;;;;;;;7334679;19;161974;-14
2022/02/18 18:13:53;;;;;;;0.90;0.80;;;;;;;;;;7334586;19;163026;-13
2022/02/18 18:16:26;;;;;;;0.63;0.63;;;;;;;;;;7334934;19;154361;-13
2022/02/18 18:18:59;;;;;;;1.50;0.95;;;;;;;;;;7334684;19;153694;-14
2022/02/18 18:21:34;;;;;;;1.13;1.02;;;;;;;;;;7333394;19;161826;-14
2022/02/18 18:24:06;;;;;;;1.13;0.95;;;;;;;;;;7333918;19;163102;-15
2022/02/18 18:26:37;;;;;;;1.40;0.73;;;;;;;;;;7334725;19;154096;-14
2022/02/18 18:29:09;;;;;;;1.05;0.95;;;;;;;;;;7332469;19;153993;-14
2022/02/18 18:31:46;;;;;;;0.77;0.77;;;;;;;;;;7333928;19;161794;-15
2022/02/18 18:34:17;;;;;;;0.90;0.88;;;;;;;;;;7333779;19;162367;-14
2022/02/18 18:36:53;;;;;;;0.80;0.80;;;;;;;;;;7334457;19;154059;-14
2022/02/18 18:39:25;;;;;;;1.13;1.00;;;;;;;;;;7333871;19;153645;-14
2022/02/18 18:41:57;;;;;;;0.90;0.90;;;;;;;;;;7332400;19;161825;-14
2022/02/18 18:44:31;;;;;;;0.77;0.77;;;;;;;;;;7333679;19;162423;-14
2022/02/18 18:47:03;;;;;;;0.90;0.90;;;;;;;;;;7334146;19;154097;-14
2022/02/18 18:49:35;;;;;;;0.75;0.75;;;;;;;;;;7334128;19;153617;-14
2022/02/18 18:52:09;;;;;;;0.80;0.80;;;;;;;;;;7333460;19;161869;-14
2022/02/18 18:54:40;;;;;;;0.90;0.90;;;;;;;;;;7333378;19;162344;-13
2022/02/18 18:57:12;;;;;;;0.95;0.70;;;;;;;;;;7332620;19;154069;-16
2022/02/18 18:59:43;;;;;;;1.23;1.02;;;;;;;;;;7333605;19;153828;-14
2022/02/18 19:02:14;;;;;;;1.02;0.95;;;;;;;;;;7331756;19;161956;-13
2022/02/18 19:04:46;;;;;;;1.25;0.95;;;;;;;;;;7333246;19;162346;-14
2022/02/18 19:07:21;;;;;;;0.80;0.80;;;;;;;;;;7333668;19;153978;-15
2022/02/18 19:09:52;;;;;;;0.85;0.85;;;;;;;;;;7332057;19;153596;-15
2022/02/18 19:12:25;;;;;;;0.93;0.90;;;;;;;;;;7333071;19;162360;-14
2022/02/18 19:14:56;;;;;;;1.20;1.00;;;;;;;;;;7332706;19;162260;-14
2022/02/18 19:17:27;;;;;;;1.02;0.80;;;;;;;;;;7333229;19;154273;-14
2022/02/18 19:20:02;;;;;;;1.13;0.95;;;;;;;;;;7333071;19;153697;-15
2022/02/18 19:22:38;;;;;;;0.77;0.77;;;;;;;;;;7329976;19;162061;-15
2022/02/18 19:25:12;;;;;;;1.52;1.10;;;;;;;;;;7331826;19;162233;-14
2022/02/18 19:27:45;;;;;;;0.80;0.80;;;;;;;;;;7332390;19;153982;-14
2022/02/18 19:30:16;;;;;;;0.82;0.70;;;;;;;;;;7332590;19;154179;-14
2022/02/18 19:32:49;;;;;;;1.13;1.02;;;;;;;;;;7331114;19;162488;-14
2022/02/18 19:35:22;;;;;;;1.65;1.17;;;;;;;;;;7330829;19;162863;-15
2022/02/18 19:37:57;;;;;;;3.33;1.55;;;;;;;;;;7332739;19;154208;-14
2022/02/18 19:40:30;;;;;;;1.88;1.77;;;;;;;;;;7334615;19;153858;-13
2022/02/18 19:43:06;;;;;;;3.47;2.58;;;;;;;;;;7327289;19;162087;-14
2022/02/18 19:45:42;;;;;;;2.60;2.00;;;;;;;;;;7329441;19;162586;-14
2022/02/18 19:48:17;;;;;;;2.97;1.90;;;;;;;;;;7332549;19;154231;-14
2022/02/18 19:50:52;;;;;;;2.42;1.77;;;;;;;;;;7331594;19;153559;-16
2022/02/18 19:53:26;;;;;;;3.78;1.85;;;;;;;;;;7331882;19;162338;-14
2022/02/18 19:55:59;;;;;;;2.95;1.83;;;;;;;;;;7331705;19;162588;-14
2022/02/18 19:58:31;;;;;;;3.45;1.80;;;;;;;;;;7331953;19;154215;-15
2022/02/18 20:01:02;;;;;;;4.68;1.77;;;;;;;;;;7331888;19;153537;-15
2022/02/18 20:03:34;;;;;;;3.65;2.65;;;;;;;;;;7329303;19;162100;-15
2022/02/18 20:06:06;;;;;;;3.42;2.30;;;;;;;;;;7331222;19;162536;-15
2022/02/18 20:08:40;;;;;;;3.47;2.13;;;;;;;;;;7331944;19;154088;-15
2022/02/18 20:11:12;;;;;;;3.28;1.88;;;;;;;;;;7331528;19;153575;-14
2022/02/18 20:13:46;;;;;;;2.42;1.73;;;;;;;;;;7331278;19;162169;-14
2022/02/18 20:16:17;;;;;;;3.15;1.75;;;;;;;;;;7332742;19;162504;-15
2022/02/18 20:18:49;;;;;;;4.15;1.85;;;;;;;;;;7334227;19;154036;-14
2022/02/18 20:21:21;;;;;;;4.13;2.13;;;;;;;;;;7334200;19;153508;-14
2022/02/18 20:23:57;;;;;;;4.63;1.55;;;;;;;;;;7332011;19;162002;-15
2022/02/18 20:26:29;;;;;;;3.83;1.55;;;;;;;;;;7333347;19;162343;-14
2022/02/18 20:29:01;;;;;;;2.42;1.60;;;;;;;;;;7331420;19;153925;-15
2022/02/18 20:31:36;;;;;;;1.77;1.67;;;;;;;;;;7334238;19;153488;-15
2022/02/18 20:34:08;;;;;;;3.22;1.60;;;;;;;;;;7333150;19;161938;-27
2022/02/18 20:36:40;;;;;;;7.60;1.73;;;;;;;;;;7333936;19;162336;-23
2022/02/18 20:39:14;;;;;;;1.95;1.27;;;;;;;;;;7334112;19;154140;-13
2022/02/18 20:41:46;;;;;;;3.13;1.90;;;;;;;;;;7333973;19;153541;-15
2022/02/18 20:44:18;;;;;;;6.20;1.85;;;;;;;;;;7330765;19;162071;-14
2022/02/18 20:46:49;;;;;;;2.22;1.45;;;;;;;;;;7332492;19;162653;-14
2022/02/18 20:49:22;;;;;;;2.08;1.48;;;;;;;;;;7333599;19;154480;-16
2022/02/18 20:51:54;;;;;;;3.60;1.70;;;;;;;;;;7334120;19;153504;-14
2022/02/18 20:54:29;;;;;;;3.38;1.75;;;;;;;;;;7333148;19;161899;-15
2022/02/18 20:57:00;;;;;;;2.85;1.77;;;;;;;;;;7332543;19;162351;-14
2022/02/18 20:59:32;;;;;;;3.05;1.63;;;;;;;;;;7330130;19;154075;-15
2022/02/18 21:02:03;;;;;;;3.58;1.70;;;;;;;;;;7329924;19;153885;-14
2022/02/18 21:04:34;;;;;;;2.88;1.58;;;;;;;;;;7325290;19;161874;-15
2022/02/18 21:07:11;;;;;;;10.27;4.20;;;;;;;;;;7332519;19;162925;-18
2022/02/18 21:09:45;;;;;;;11.13;5.32;;;;;;;;;;7332185;19;154122;-15
2022/02/18 21:12:18;;;;;;;8.82;3.95;;;;;;;;;;7332981;19;153626;-15
2022/02/18 21:14:50;;;;;;;;;;;;;;;;;;7330202;19;161943;-14
2022/02/18 21:17:21;;;;;;;5.95;3.47;;;;;;;;;;7328508;19;162315;-14
2022/02/18 21:19:53;;;;;;;6.57;2.58;;;;;;;;;;7330785;19;154059;-14
2022/02/18 21:22:24;;;;;;;6.80;2.80;;;;;;;;;;7329279;19;153868;-15
2022/02/18 21:24:58;;;;;;;4.40;2.67;;;;;;;;;;7324683;19;162034;-14
2022/02/18 21:27:31;;;;;;;7.40;3.42;;;;;;;;;;7327516;19;162380;-15
2022/02/18 21:30:04;;;;;;;7.00;3.13;;;;;;;;;;7333337;19;155340;-14
2022/02/18 21:32:35;;;;;;;7.10;2.78;;;;;;;;;;7332118;19;153889;-14
2022/02/18 21:35:08;;;;;;;7.57;2.90;;;;;;;;;;7331142;19;162027;-14
2022/02/18 21:37:42;;;;;;;5.72;3.25;;;;;;;;;;7328710;19;162524;-14
2022/02/18 21:40:16;;;;;;;5.70;2.70;;;;;;;;;;7331594;19;154046;-14
2022/02/18 21:42:49;;;;;;;5.50;2.78;;;;;;;;;;7334550;19;153535;-15
2022/02/18 21:45:20;;;;;;;8.02;4.20;;;;;;;;;;7335214;19;161916;-15
2022/02/18 21:47:53;;;;;;;7.50;4.10;;;;;;;;;;7337553;19;162548;-14
2022/02/18 21:50:25;;;;;;;7.35;3.45;;;;;;;;;;7337074;19;154133;-15
2022/02/18 21:52:56;;;;;;;6.55;3.45;;;;;;;;;;7334085;19;153506;-14
2022/02/18 21:55:41;;;;;;;6.35;3.47;;;;;;;;;;7334969;19;161934;-14
2022/02/18 21:58:15;;;;;;;7.93;2.85;;;;;;;;;;7336805;19;162080;-14
2022/02/18 22:00:47;;;;;;;7.03;3.42;;;;;;;;;;7338935;19;153994;-14
2022/02/18 22:03:18;;;;;;;7.05;4.10;;;;;;;;;;7334626;19;153671;-14
2022/02/18 22:05:50;;;;;;;9.38;4.20;;;;;;;;;;7337293;19;161815;-14
2022/02/18 22:08:21;;;;;;;5.95;3.13;;;;;;;;;;7335072;19;162409;-14
2022/02/18 22:10:55;;;;;;;9.10;3.95;;;;;;;;;;7334481;19;153948;-16
2022/02/18 22:13:30;;;;;;;7.63;3.40;;;;;;;;;;7331287;19;153504;-15
2022/02/18 22:16:02;;;;;;;7.30;3.65;;;;;;;;;;7335658;19;161847;-14
2022/02/18 22:18:34;;;;;;;7.37;2.93;;;;;;;;;;7334164;19;162620;-15
2022/02/18 22:21:07;;;;;;;4.50;2.85;;;;;;;;;;7335340;19;154009;-14
2022/02/18 22:23:39;;;;;;;8.20;4.05;;;;;;;;;;7336599;19;153602;-14
2022/02/18 22:26:13;;;;;;;6.60;3.40;;;;;;;;;;7333849;19;162083;-14
2022/02/18 22:28:45;;;;;;;5.40;3.25;;;;;;;;;;7332227;19;162428;-15
2022/02/18 22:31:34;;;;;;;4.95;2.92;;;;;;;;;;7334194;19;154031;-15
2022/02/18 22:34:05;;;;;;;4.55;2.58;;;;;;;;;;7334091;19;153670;-15
2022/02/18 22:36:36;;;;;;;6.80;3.45;;;;;;;;;;7333753;19;162080;-15
2022/02/18 22:39:08;;;;;;;5.57;3.40;;;;;;;;;;7333475;19;162546;-14
2022/02/18 22:41:42;;;;;;;5.70;2.85;;;;;;;;;;7333937;19;154051;-15
2022/02/18 22:44:13;;;;;;;6.20;2.92;;;;;;;;;;7334897;19;153633;-15
2022/02/18 22:46:45;;;;;;;4.97;3.28;;;;;;;;;;7333297;19;161812;-19
2022/02/18 22:49:16;;;;;;;5.45;3.30;;;;;;;;;;7333382;19;162552;-15
2022/02/18 22:51:47;;;;;;;4.60;2.78;;;;;;;;;;7332826;19;154264;-15
2022/02/18 22:54:18;;;;;;;5.63;3.17;;;;;;;;;;7333510;19;153321;-15
2022/02/18 22:56:54;;;;;;;5.20;2.90;;;;;;;;;;7332994;19;161862;-15
2022/02/18 22:59:25;;;;;;;4.07;2.63;;;;;;;;;;7335331;19;162356;-15
2022/02/18 23:01:56;;;;;;;6.68;2.85;;;;;;;;;;7333400;19;154223;-15
2022/02/18 23:04:27;;;;;;;5.43;2.83;;;;;;;;;;7332522;19;153519;-15
2022/02/18 23:06:59;;;;;;;5.38;2.95;;;;;;;;;;7332932;19;161794;-15
2022/02/18 23:09:30;;;;;;;5.72;2.72;;;;;;;;;;7332589;19;162454;-15
2022/02/18 23:12:04;;;;;;;4.85;3.20;;;;;;;;;;7333330;19;153950;-15
2022/02/18 23:14:36;;;;;;;5.82;3.10;;;;;;;;;;7334872;19;154264;-15
2022/02/18 23:17:07;;;;;;;4.25;2.90;;;;;;;;;;7332565;19;162035;-15
2022/02/18 23:19:38;;;;;;;4.57;2.90;;;;;;;;;;7331372;19;162435;-15
2022/02/18 23:22:10;;;;;;;8.27;3.13;;;;;;;;;;7332661;19;154259;-15
2022/02/18 23:24:41;;;;;;;6.47;3.08;;;;;;;;;;7331967;19;153510;-17
2022/02/18 23:27:16;;;;;;;9.23;4.20;;;;;;;;;;7332650;19;161903;-16
2022/02/18 23:29:47;;;;;;;10.10;4.63;;;;;;;;;;7332866;19;162534;-15
2022/02/18 23:32:22;;;;;;;12.27;4.40;;;;;;;;;;7331220;19;153951;-15
2022/02/18 23:34:53;;;;;;;5.97;3.58;;;;;;;;;;7335632;19;153577;-14
2022/02/18 23:37:24;;;;;;;6.75;3.55;;;;;;;;;;7333607;19;161984;-14
2022/02/18 23:39:56;;;;;;;5.30;3.20;;;;;;;;;;7331032;19;162343;-15
2022/02/18 23:42:30;;;;;;;7.85;3.53;;;;;;;;;;7331276;19;154199;-14
2022/02/18 23:45:01;;;;;;;5.55;2.88;;;;;;;;;;7332956;19;153728;-15
2022/02/18 23:47:33;;;;;;;6.22;3.10;;;;;;;;;;7330945;19;162149;-15
2022/02/18 23:50:05;;;;;;;5.38;2.90;;;;;;;;;;7330946;19;162594;-18
2022/02/18 23:52:37;;;;;;;4.72;2.80;;;;;;;;;;7331202;19;153791;-15
2022/02/18 23:55:10;;;;;;;6.25;2.83;;;;;;;;;;7331141;19;154047;-15
2022/02/18 23:57:45;;;;;;;6.60;3.42;;;;;;;;;;7330466;19;162261;-15
